Time;durP1;ratioP1;P1;durP2;ratioP2;P2;SDS_P1;SDS_P2;PMS_P1;PMS_P2;Temp;Humidity;BMP_temperature;BMP_pressure;BME280_temperature;BME280_humidity;BME280_pressure;Samples;Min_cycle;Max_cycle;Signal;HPM_P1;HPM_P2
2021/01/05 00:00:23;;;;;;;55.63;19.27;;;;;;;-2.54;83.80;95940.50;4994234;28;20049;-67
2021/01/05 00:02:48;;;;;;;61.30;23.77;;;;;;;-2.61;83.74;95944.66;5018120;28;20482;-65
2021/01/05 00:05:14;;;;;;;64.15;21.95;;;;;;;-2.60;83.68;95949.72;5005123;28;20042;-64
2021/01/05 00:07:41;;;;;;;65.43;22.25;;;;;;;-2.64;83.68;95956.00;5005730;28;20132;-64
2021/01/05 00:10:07;;;;;;;64.28;21.95;;;;;;;-2.64;84.12;95948.75;5004031;28;20056;-64
2021/01/05 00:12:33;;;;;;;70.60;23.13;;;;;;;-2.57;83.50;95946.44;5003445;28;20594;-63
2021/01/05 00:14:58;;;;;;;61.80;22.55;;;;;;;-2.59;83.95;95947.84;5006886;28;20545;-64
2021/01/05 00:17:24;;;;;;;59.67;20.67;;;;;;;-2.54;83.82;95943.19;5002662;28;20050;-62
2021/01/05 00:19:50;;;;;;;57.25;18.25;;;;;;;-2.36;82.87;95946.81;5014525;28;20045;-63
2021/01/05 00:22:17;;;;;;;70.45;23.10;;;;;;;-2.61;83.76;95936.63;5012044;28;20042;-63
2021/01/05 00:24:43;;;;;;;59.47;22.38;;;;;;;-2.61;84.44;95936.63;5018556;28;20565;-64
2021/01/05 00:27:08;;;;;;;59.65;21.15;;;;;;;-2.63;84.10;95942.31;5011985;28;20037;-65
2021/01/05 00:29:35;;;;;;;68.43;24.70;;;;;;;-2.67;83.90;95938.63;5015325;28;20049;-65
2021/01/05 00:32:14;;;;;;;69.30;21.77;;;;;;;-2.67;84.19;95935.94;5009590;28;20119;-62
2021/01/05 00:34:41;;;;;;;62.53;20.33;;;;;;;-2.53;83.49;95938.59;5017685;28;20041;-66
2021/01/05 00:37:06;;;;;;;62.72;21.15;;;;;;;-2.55;83.82;95944.25;5002867;28;20069;-65
2021/01/05 00:39:32;;;;;;;65.28;21.90;;;;;;;-2.65;83.78;95944.47;5011474;28;20037;-65
2021/01/05 00:41:57;;;;;;;60.90;20.52;;;;;;;-2.65;84.03;95957.88;5017844;28;20486;-64
2021/01/05 00:44:23;;;;;;;59.30;20.73;;;;;;;-2.55;83.71;95951.53;5012714;28;20107;-65
2021/01/05 00:46:48;;;;;;;59.30;18.92;;;;;;;-2.61;83.60;95955.38;5010659;28;20046;-64
2021/01/05 00:49:14;;;;;;;59.30;20.38;;;;;;;-2.67;83.79;95957.38;5002611;28;20406;-62
2021/01/05 00:51:39;;;;;;;62.40;19.38;;;;;;;-2.60;83.44;95955.09;5021669;28;20118;-64
2021/01/05 00:54:05;;;;;;;63.70;22.95;;;;;;;-2.65;83.84;95957.88;5011000;28;20045;-64
2021/01/05 00:56:30;;;;;;;57.97;19.95;;;;;;;-2.65;84.47;95957.09;5023472;28;20052;-65
2021/01/05 00:58:56;;;;;;;61.08;20.23;;;;;;;-2.65;83.54;95957.09;5018817;28;20049;-65
2021/01/05 01:01:22;;;;;;;64.03;20.60;;;;;;;-2.64;83.89;95962.16;5005503;28;21347;-67
2021/01/05 01:03:49;;;;;;;54.97;19.30;;;;;;;-2.57;84.25;95967.13;5004791;28;20423;-67
2021/01/05 01:06:15;;;;;;;57.35;20.40;;;;;;;-2.54;83.91;95975.34;4975646;28;20042;-67
2021/01/05 01:08:40;;;;;;;57.83;21.45;;;;;;;-2.53;83.72;95974.25;4999033;28;20630;-66
2021/01/05 01:11:07;;;;;;;69.57;22.85;;;;;;;-2.60;84.30;95970.38;4997318;28;20140;-68
2021/01/05 01:13:32;;;;;;;68.40;21.58;;;;;;;-2.60;84.13;95968.50;5001894;28;20119;-68
2021/01/05 01:15:58;;;;;;;69.90;23.55;;;;;;;-2.60;84.30;95973.84;5018587;28;20133;-64
2021/01/05 01:18:23;;;;;;;65.22;22.60;;;;;;;-2.64;84.28;95972.88;5006530;28;20041;-66
2021/01/05 01:20:49;;;;;;;67.10;21.70;;;;;;;-2.60;84.12;95973.06;5006131;28;20053;-66
2021/01/05 01:23:14;;;;;;;63.83;21.85;;;;;;;-2.53;83.33;95971.56;4986614;28;20037;-66
2021/01/05 01:25:40;;;;;;;61.08;21.48;;;;;;;-2.41;83.27;95968.38;5014163;28;20109;-67
2021/01/05 01:28:05;;;;;;;65.30;22.13;;;;;;;-2.45;83.38;95967.38;5016070;28;20420;-66
2021/01/05 01:30:31;;;;;;;62.75;20.20;;;;;;;-2.39;83.45;95973.44;5027464;28;20103;-67
2021/01/05 01:32:56;;;;;;;65.20;22.70;;;;;;;-2.58;83.68;95962.84;5024990;28;20045;-67
2021/01/05 01:35:22;;;;;;;78.20;21.45;;;;;;;-2.63;84.05;95970.97;5003929;28;20486;-67
2021/01/05 01:37:47;;;;;;;65.03;20.20;;;;;;;-2.58;84.27;95965.53;5002954;28;20085;-67
2021/01/05 01:40:14;;;;;;;69.78;23.20;;;;;;;-2.65;84.32;95963.22;4996551;28;20042;-68
2021/01/05 01:42:39;;;;;;;56.97;21.75;;;;;;;-2.62;84.27;95968.00;5001778;28;20415;-68
2021/01/05 01:45:06;;;;;;;84.10;23.90;;;;;;;-2.65;84.18;95973.97;5014295;28;20042;-68
2021/01/05 01:47:37;;;;;;;59.40;21.13;;;;;;;-2.64;83.94;95975.56;5014484;28;20734;-68
2021/01/05 01:50:10;;;;;;;62.20;20.67;;;;;;;-2.58;84.47;95974.34;5019263;28;20049;-67
2021/01/05 01:52:56;;;;;;;68.97;21.20;;;;;;;-2.52;83.86;95969.66;5020947;28;20045;-67
2021/01/05 01:55:22;;;;;;;66.88;20.70;;;;;;;-2.59;83.74;95972.78;4995571;28;20204;-66
2021/01/05 01:58:04;;;;;;;68.57;21.17;;;;;;;-2.65;83.58;95967.81;5020925;28;20187;-65
2021/01/05 02:00:36;;;;;;;63.40;21.67;;;;;;;-2.64;83.90;95967.50;5010832;28;20050;-68
2021/01/05 02:03:30;;;;;;;58.38;20.05;;;;;;;-2.63;83.88;95965.63;5026912;28;20434;-66
2021/01/05 02:06:13;;;;;;;65.07;22.13;;;;;;;-2.66;84.17;95976.97;5016530;28;20044;-66
2021/01/05 02:08:42;;;;;;;61.50;21.77;;;;;;;-2.64;84.43;95977.44;5008829;28;20080;-66
2021/01/05 02:11:40;;;;;;;67.47;22.48;;;;;;;-2.67;83.98;95981.50;4997052;28;20049;-64
2021/01/05 02:14:16;;;;;;;63.53;21.27;;;;;;;-2.62;83.90;95984.09;5000506;28;20037;-68
2021/01/05 02:17:17;;;;;;;53.78;18.75;;;;;;;-2.59;83.59;95980.81;5021412;28;20265;-66
2021/01/05 02:19:48;;;;;;;62.50;19.02;;;;;;;-2.63;84.01;95977.16;5017535;28;20052;-64
2021/01/05 02:22:42;;;;;;;61.35;19.70;;;;;;;-2.63;83.45;95979.84;5013696;28;20050;-65
2021/01/05 02:25:20;;;;;;;59.03;18.80;;;;;;;-2.51;83.12;95982.78;5015345;28;20041;-63
2021/01/05 02:27:51;;;;;;;61.65;18.33;;;;;;;-2.47;82.65;95982.97;5014060;28;20045;-63
2021/01/05 02:30:21;;;;;;;58.45;19.63;;;;;;;-2.62;83.37;95980.63;4996719;28;20042;-64
2021/01/05 02:33:11;;;;;;;58.38;20.67;;;;;;;-2.69;84.01;95991.75;5005214;28;20554;-64
2021/01/05 02:35:54;;;;;;;58.33;20.05;;;;;;;-2.72;83.68;95979.75;5019646;28;20506;-60
2021/01/05 02:38:35;;;;;;;63.53;20.27;;;;;;;-2.72;84.09;95987.78;5013797;28;20065;-65
2021/01/05 02:41:30;;;;;;;57.67;20.60;;;;;;;-2.74;84.14;95992.66;5020251;28;20052;-64
2021/01/05 02:44:23;;;;;;;62.28;20.20;;;;;;;-2.72;84.11;95985.09;4969618;28;20096;-65
2021/01/05 02:47:22;;;;;;;49.05;18.08;;;;;;;-2.71;84.00;95985.88;5019487;28;20037;-63
2021/01/05 02:50:12;;;;;;;56.20;19.05;;;;;;;-2.75;84.17;95982.22;5019908;28;20407;-63
2021/01/05 02:53:12;;;;;;;55.38;18.98;;;;;;;-2.74;84.10;95989.16;5016851;28;20434;-65
2021/01/05 02:55:55;;;;;;;58.58;19.63;;;;;;;-2.71;83.99;95985.88;5017491;28;20438;-64
2021/01/05 02:58:50;;;;;;;60.05;20.85;;;;;;;-2.70;83.62;95988.28;5016189;28;20037;-64
2021/01/05 03:01:30;;;;;;;57.63;19.52;;;;;;;-2.70;84.19;95985.59;5014924;28;20103;-62
2021/01/05 03:03:57;;;;;;;65.50;21.23;;;;;;;-2.75;83.87;95984.91;5018438;28;20131;-61
2021/01/05 03:06:39;;;;;;;59.05;19.50;;;;;;;-2.76;83.90;95983.31;5013975;28;20045;-65
2021/01/05 03:09:09;;;;;;;65.78;20.77;;;;;;;-2.74;84.14;95981.13;5008592;28;20037;-66
2021/01/05 03:11:41;;;;;;;59.75;18.33;;;;;;;-2.68;84.07;95990.66;5019260;28;20053;-64
2021/01/05 03:14:38;;;;;;;57.75;17.83;;;;;;;-2.62;83.58;95988.66;5014664;28;20076;-66
2021/01/05 03:17:25;;;;;;;58.33;18.60;;;;;;;-2.62;83.62;95994.81;5015948;28;20120;-66
2021/01/05 03:20:01;;;;;;;54.65;18.58;;;;;;;-2.67;84.14;95992.22;5033353;28;20119;-64
2021/01/05 03:22:31;;;;;;;49.90;18.20;;;;;;;-2.70;83.77;95987.50;5010994;28;20069;-64
2021/01/05 03:24:58;;;;;;;61.45;18.23;;;;;;;-2.53;83.80;95990.34;5012114;28;20509;-64
2021/01/05 03:27:26;;;;;;;54.63;17.23;;;;;;;-2.43;83.64;95986.66;5008210;28;20111;-66
2021/01/05 03:29:56;;;;;;;53.70;17.42;;;;;;;-2.55;83.06;95987.16;5016022;28;20029;-65
2021/01/05 03:32:21;;;;;;;53.15;17.73;;;;;;;-2.55;83.05;95995.22;5003740;28;21599;-63
2021/01/05 03:34:47;;;;;;;56.85;20.58;;;;;;;-2.60;83.51;95989.16;5016517;28;20045;-65
2021/01/05 03:37:12;;;;;;;54.97;17.67;;;;;;;-2.56;83.14;95998.97;4999881;28;20060;-66
2021/01/05 03:39:38;;;;;;;58.92;17.85;;;;;;;-2.43;82.86;96005.44;5012719;28;20037;-65
2021/01/05 03:42:04;;;;;;;56.28;17.45;;;;;;;-2.42;82.83;96001.66;5003356;28;20052;-66
2021/01/05 03:44:30;;;;;;;56.42;17.92;;;;;;;-2.36;82.50;96003.16;5010088;28;20454;-63
2021/01/05 03:46:55;;;;;;;50.55;16.33;;;;;;;-2.26;82.27;96009.38;5007783;28;20038;-64
2021/01/05 03:49:21;;;;;;;51.85;17.75;;;;;;;-2.28;81.99;96000.84;5004710;28;20048;-63
2021/01/05 03:51:46;;;;;;;51.75;16.75;;;;;;;-2.12;81.18;96002.88;5016856;28;20107;-63
2021/01/05 03:54:12;;;;;;;47.28;16.58;;;;;;;-2.15;81.28;96005.38;5004444;28;20042;-63
2021/01/05 03:56:37;;;;;;;55.05;17.08;;;;;;;-1.93;80.65;96013.50;5003779;28;20449;-63
2021/01/05 03:59:03;;;;;;;44.03;15.70;;;;;;;-1.83;80.10;96009.75;5012274;28;20065;-66
2021/01/05 04:01:28;;;;;;;52.85;16.30;;;;;;;-1.90;80.03;96019.34;5009866;28;20263;-63
2021/01/05 04:03:54;;;;;;;50.20;16.73;;;;;;;-1.92;80.02;96020.44;5016078;28;20052;-62
2021/01/05 04:06:19;;;;;;;52.80;18.10;;;;;;;-2.00;80.59;96021.16;5006863;28;20030;-64
2021/01/05 04:08:45;;;;;;;50.10;15.15;;;;;;;-2.11;80.72;96025.13;5014950;28;20049;-65
2021/01/05 04:11:17;;;;;;;51.22;18.58;;;;;;;-1.98;80.94;96024.34;5009616;28;20095;-66
2021/01/05 04:13:42;;;;;;;51.75;17.80;;;;;;;-1.77;79.71;96027.34;5015074;28;20045;-64
2021/01/05 04:16:08;;;;;;;48.00;15.85;;;;;;;-1.80;80.22;96027.16;5008148;28;20041;-66
2021/01/05 04:18:34;;;;;;;45.75;16.25;;;;;;;-1.93;80.47;96024.22;5007280;28;20549;-65
2021/01/05 04:20:59;;;;;;;47.92;16.25;;;;;;;-1.65;80.71;96024.13;5017138;28;20072;-65
2021/01/05 04:23:25;;;;;;;45.25;15.85;;;;;;;-1.83;79.73;96025.09;5009296;28;20061;-65
2021/01/05 04:25:50;;;;;;;50.70;16.38;;;;;;;-1.65;79.25;96024.13;5038842;28;20052;-65
2021/01/05 04:28:15;;;;;;;44.58;16.75;;;;;;;-1.57;78.68;96022.59;5014238;28;20137;-64
2021/01/05 04:30:41;;;;;;;38.53;14.55;;;;;;;-1.54;78.33;96027.38;5012542;28;20049;-65
2021/01/05 04:33:10;;;;;;;44.10;13.68;;;;;;;-1.46;78.02;96023.97;5005232;28;20041;-64
2021/01/05 04:35:36;;;;;;;42.67;14.47;;;;;;;-1.44;77.81;96035.19;5008537;28;20163;-63
2021/01/05 04:38:02;;;;;;;43.25;15.48;;;;;;;-1.58;77.67;96034.44;4991562;28;20045;-65
2021/01/05 04:40:35;;;;;;;42.13;14.93;;;;;;;-1.82;78.24;96043.59;4997604;28;20049;-67
2021/01/05 04:43:35;;;;;;;40.58;14.77;;;;;;;-1.87;78.89;96038.31;5003859;28;20103;-64
2021/01/05 04:46:14;;;;;;;43.45;13.95;;;;;;;-2.05;79.69;96041.91;4987204;28;20038;-64
2021/01/05 04:48:53;;;;;;;48.28;15.07;;;;;;;-2.03;80.41;96045.91;5010622;28;20042;-64
2021/01/05 04:51:37;;;;;;;42.33;15.27;;;;;;;-1.98;79.83;96045.81;5013035;28;20052;-65
2021/01/05 04:54:24;;;;;;;45.00;14.20;;;;;;;-1.93;80.20;96050.25;5015640;28;20064;-65
2021/01/05 04:57:18;;;;;;;43.45;15.70;;;;;;;-1.77;79.76;96058.75;5015432;28;20040;-64
2021/01/05 04:59:47;;;;;;;48.50;15.85;;;;;;;-1.66;78.66;96062.00;5023014;28;20046;-64
2021/01/05 05:02:29;;;;;;;40.08;14.45;;;;;;;-1.62;78.65;96071.84;5014889;28;20090;-66
2021/01/05 05:05:17;;;;;;;36.00;12.98;;;;;;;-1.44;77.46;96066.59;5021137;28;20056;-66
2021/01/05 05:08:11;;;;;;;39.88;14.10;;;;;;;-1.52;77.11;96075.41;5003237;28;20038;-63
2021/01/05 05:10:50;;;;;;;36.22;13.55;;;;;;;-1.64;77.75;96078.63;5007338;28;20403;-64
2021/01/05 05:13:48;;;;;;;44.93;14.83;;;;;;;-1.59;77.15;96083.88;5016283;28;20413;-64
2021/01/05 05:16:51;;;;;;;41.42;13.43;;;;;;;-1.65;77.68;96088.56;4994722;28;20499;-64
2021/01/05 05:19:34;;;;;;;39.35;13.82;;;;;;;-1.67;77.63;96087.28;5012445;28;20187;-63
2021/01/05 05:22:12;;;;;;;33.33;12.18;;;;;;;-1.92;78.31;96100.16;5020561;28;20041;-63
2021/01/05 05:24:50;;;;;;;39.40;13.63;;;;;;;-1.99;78.30;96091.72;5022166;28;20045;-61
2021/01/05 05:27:22;;;;;;;40.13;14.30;;;;;;;-1.92;78.50;96100.16;5010349;28;20041;-62
2021/01/05 05:29:55;;;;;;;48.53;16.08;;;;;;;-1.98;78.30;96102.16;5005011;28;20630;-61
2021/01/05 05:32:49;;;;;;;38.17;13.13;;;;;;;-2.12;78.62;96106.75;5005039;28;20073;-62
2021/01/05 05:35:36;;;;;;;36.03;11.95;;;;;;;-2.03;78.50;96113.00;5006865;28;20044;-62
2021/01/05 05:38:47;;;;;;;37.25;13.18;;;;;;;-1.95;77.98;96112.28;5020702;28;20081;-64
2021/01/05 05:41:32;;;;;;;35.05;13.27;;;;;;;-1.81;77.58;96106.91;5017207;28;20045;-63
2021/01/05 05:44:15;;;;;;;36.13;12.27;;;;;;;-1.70;76.97;96112.06;5013424;28;20096;-63
2021/01/05 05:46:45;;;;;;;35.97;12.55;;;;;;;-1.69;77.15;96110.94;5019406;28;20540;-63
2021/01/05 05:49:38;;;;;;;33.17;12.90;;;;;;;-1.55;76.60;96109.84;5006923;28;20066;-63
2021/01/05 05:52:13;;;;;;;36.45;13.18;;;;;;;-1.42;76.22;96110.88;5003465;28;20459;-65
2021/01/05 05:54:39;;;;;;;32.33;12.93;;;;;;;-1.36;75.72;96114.25;5014891;28;20589;-63
2021/01/05 05:57:35;;;;;;;30.58;11.65;;;;;;;-1.29;75.87;96116.53;5012774;28;20049;-64
2021/01/05 06:00:27;;;;;;;33.58;11.70;;;;;;;-1.32;75.33;96109.06;5008526;28;20045;-62
2021/01/05 06:02:52;;;;;;;35.95;12.52;;;;;;;-1.35;74.95;96108.56;5006355;28;20801;-63
2021/01/05 06:05:20;;;;;;;33.65;11.43;;;;;;;-1.26;75.48;96107.81;5012693;28;20171;-62
2021/01/05 06:07:46;;;;;;;33.15;12.85;;;;;;;-1.29;76.21;96111.94;5014118;28;20078;-63
2021/01/05 06:10:11;;;;;;;38.58;12.70;;;;;;;-1.38;76.26;96106.47;4999395;28;20429;-61
2021/01/05 06:12:37;;;;;;;33.45;12.65;;;;;;;-1.34;76.21;96112.03;5012513;28;20053;-64
2021/01/05 06:15:03;;;;;;;35.90;14.27;;;;;;;-1.43;76.47;96116.56;5014983;28;20049;-65
2021/01/05 06:17:28;;;;;;;34.63;13.13;;;;;;;-1.42;76.55;96115.47;5015881;28;20525;-63
2021/01/05 06:19:54;;;;;;;36.35;12.82;;;;;;;-1.44;76.31;96113.09;5004332;28;20038;-64
2021/01/05 06:22:19;;;;;;;37.38;12.70;;;;;;;-1.49;76.82;96113.19;5002801;28;20038;-63
2021/01/05 06:24:45;;;;;;;42.03;14.77;;;;;;;-1.43;77.19;96117.34;5004024;28;20632;-64
2021/01/05 06:27:11;;;;;;;41.40;15.48;;;;;;;-1.36;77.23;96125.00;5000499;28;20041;-64
2021/01/05 06:29:36;;;;;;;34.10;13.90;;;;;;;-1.30;76.61;96118.38;4997981;28;20055;-63
2021/01/05 06:32:01;;;;;;;38.65;14.57;;;;;;;-1.29;76.35;96119.22;5015727;28;20143;-61
2021/01/05 06:34:27;;;;;;;39.38;12.77;;;;;;;-1.27;76.34;96117.00;4994410;28;20041;-61
2021/01/05 06:36:52;;;;;;;35.42;13.10;;;;;;;-1.33;76.12;96123.56;4999800;28;20045;-64
2021/01/05 06:39:18;;;;;;;39.70;13.13;;;;;;;-1.40;76.39;96122.13;4994719;28;20088;-61
2021/01/05 06:41:43;;;;;;;46.90;14.25;;;;;;;-1.36;76.28;96128.47;5004889;28;20048;-62
2021/01/05 06:44:08;;;;;;;37.38;14.55;;;;;;;-1.35;76.45;96119.31;5012035;28;20095;-62
2021/01/05 06:46:34;;;;;;;33.67;11.75;;;;;;;-1.35;76.47;96123.91;5000147;28;20137;-62
2021/01/05 06:48:59;;;;;;;40.20;13.55;;;;;;;-1.32;76.29;96122.50;5006656;28;20052;-63
2021/01/05 06:51:25;;;;;;;29.95;12.13;;;;;;;-1.28;76.34;96118.09;5018150;28;20045;-63
2021/01/05 06:53:50;;;;;;;32.90;12.32;;;;;;;-1.25;76.35;96123.66;5027458;28;20088;-62
2021/01/05 06:56:16;;;;;;;41.95;13.73;;;;;;;-1.22;75.79;96124.94;5018265;28;20040;-63
2021/01/05 06:58:41;;;;;;;42.97;12.25;;;;;;;-1.24;76.03;96125.25;4998346;28;20054;-63
2021/01/05 07:01:07;;;;;;;33.67;12.35;;;;;;;-1.26;75.94;96124.75;5010301;28;20477;-61
2021/01/05 07:03:32;;;;;;;33.33;12.75;;;;;;;-1.27;76.30;96125.06;5017883;28;20053;-63
2021/01/05 07:05:57;;;;;;;32.85;12.10;;;;;;;-1.21;75.73;96123.84;5016934;28;20485;-62
2021/01/05 07:08:23;;;;;;;41.20;13.93;;;;;;;-1.29;75.67;96124.56;4993130;28;20132;-62
2021/01/05 07:10:48;;;;;;;35.63;13.35;;;;;;;-1.23;75.73;96128.72;4998828;28;20037;-63
2021/01/05 07:13:14;;;;;;;36.17;13.57;;;;;;;-1.26;76.35;96140.88;5006604;28;20398;-63
2021/01/05 07:15:40;;;;;;;42.28;14.40;;;;;;;-1.12;75.87;96134.66;5010372;28;20054;-64
2021/01/05 07:18:05;;;;;;;34.80;12.73;;;;;;;-1.24;76.06;96137.88;4994995;28;20048;-63
2021/01/05 07:20:30;;;;;;;37.80;13.10;;;;;;;-1.15;75.90;96136.06;5016605;28;21567;-61
2021/01/05 07:22:56;;;;;;;37.10;14.13;;;;;;;-1.19;76.09;96137.75;5009755;28;20058;-63
2021/01/05 07:25:21;;;;;;;32.78;12.65;;;;;;;-1.16;75.93;96151.38;4997547;28;20080;-65
2021/01/05 07:27:47;;;;;;;36.28;13.23;;;;;;;-1.15;76.06;96141.44;5024553;28;20041;-64
2021/01/05 07:30:13;;;;;;;32.65;13.40;;;;;;;-1.12;76.10;96146.19;5026352;28;20101;-63
2021/01/05 07:32:38;;;;;;;35.72;13.18;;;;;;;-1.08;76.07;96141.00;4988389;28;20038;-63
2021/01/05 07:35:06;;;;;;;36.75;12.95;;;;;;;-1.11;75.95;96142.41;5010455;28;20037;-64
2021/01/05 07:37:37;;;;;;;34.80;12.43;;;;;;;-1.08;75.99;96146.38;5011443;28;20049;-63
2021/01/05 07:40:05;;;;;;;36.95;12.13;;;;;;;-1.10;76.27;96144.00;5004785;28;20048;-64
2021/01/05 07:42:32;;;;;;;32.85;13.43;;;;;;;-1.06;75.74;96146.84;5013362;28;20088;-63
2021/01/05 07:45:00;;;;;;;34.95;12.80;;;;;;;-1.07;75.81;96153.34;5010261;28;20047;-63
2021/01/05 07:47:28;;;;;;;36.20;13.70;;;;;;;-1.07;75.81;96150.66;5005471;28;20964;-64
2021/01/05 07:49:54;;;;;;;35.15;13.00;;;;;;;-1.01;75.23;96150.25;5005817;28;20042;-64
2021/01/05 07:52:31;;;;;;;35.10;14.32;;;;;;;-1.04;75.22;96153.53;5006081;28;20099;-65
2021/01/05 07:54:56;;;;;;;38.17;13.95;;;;;;;-1.05;75.88;96149.25;5021358;28;20069;-65
2021/01/05 07:57:22;;;;;;;34.22;13.57;;;;;;;-1.05;75.84;96143.09;5010164;28;20942;-64
2021/01/05 07:59:47;;;;;;;35.38;13.68;;;;;;;-1.25;75.95;96147.03;5014622;28;20049;-65
2021/01/05 08:02:13;;;;;;;38.92;13.80;;;;;;;-1.48;77.13;96146.22;5012361;28;20065;-65
2021/01/05 08:04:40;;;;;;;35.58;14.07;;;;;;;-1.44;77.89;96149.88;5008933;28;20038;-64
2021/01/05 08:07:07;;;;;;;40.78;15.05;;;;;;;-1.21;77.01;96142.66;5010165;28;20041;-65
2021/01/05 08:09:33;;;;;;;37.00;13.82;;;;;;;-1.26;77.31;96140.88;5008922;28;20077;-65
2021/01/05 08:11:58;;;;;;;36.17;13.52;;;;;;;-1.10;77.37;96141.31;5005645;28;20033;-65
2021/01/05 08:14:24;;;;;;;38.53;14.82;;;;;;;-1.09;76.84;96150.19;5008351;28;20107;-64
2021/01/05 08:16:50;;;;;;;40.85;15.52;;;;;;;-0.96;76.53;96150.09;4981761;28;20054;-64
2021/01/05 08:19:17;;;;;;;37.25;14.32;;;;;;;-0.92;76.56;96149.50;4990782;28;20067;-66
2021/01/05 08:21:42;;;;;;;38.40;14.38;;;;;;;-0.93;76.26;96148.72;5016316;28;20461;-66
2021/01/05 08:24:08;;;;;;;45.83;14.60;;;;;;;-1.00;76.15;96145.66;4995069;28;20048;-67
2021/01/05 08:26:33;;;;;;;41.92;15.00;;;;;;;-0.89;76.00;96135.44;5018066;28;20033;-66
2021/01/05 08:28:59;;;;;;;48.30;15.77;;;;;;;-0.75;75.02;96132.72;5014331;28;20037;-65
2021/01/05 08:31:37;;;;;;;44.90;14.85;;;;;;;-0.75;74.91;96148.84;5005026;28;20034;-65
2021/01/05 08:34:03;;;;;;;47.00;14.30;;;;;;;-0.70;74.79;96151.38;5014341;28;20064;-67
2021/01/05 08:36:30;;;;;;;50.63;15.38;;;;;;;-0.62;74.50;96150.66;4993996;28;20037;-65
2021/01/05 08:38:57;;;;;;;45.38;14.43;;;;;;;-0.66;74.42;96152.38;5022433;28;20167;-65
2021/01/05 08:41:23;;;;;;;46.78;16.42;;;;;;;-0.62;74.72;96151.44;5016621;28;20049;-62
2021/01/05 08:43:48;;;;;;;40.10;13.00;;;;;;;-0.66;74.17;96155.06;5019069;28;20553;-61
2021/01/05 08:46:25;;;;;;;47.10;14.52;;;;;;;-0.66;74.03;96149.69;5015889;28;20037;-63
2021/01/05 08:48:51;;;;;;;40.88;14.80;;;;;;;-0.65;74.05;96151.25;5012581;28;20132;-63
2021/01/05 08:51:19;;;;;;;33.63;12.68;;;;;;;-0.68;74.32;96157.25;5016724;28;20071;-63
2021/01/05 08:53:49;;;;;;;34.65;13.40;;;;;;;-0.71;74.69;96150.59;5018810;28;20403;-63
2021/01/05 08:56:24;;;;;;;36.08;14.27;;;;;;;-0.65;74.46;96156.63;4997438;28;20128;-62
2021/01/05 08:58:50;;;;;;;38.83;13.27;;;;;;;-0.56;74.44;96143.25;5012378;28;20045;-62
2021/01/05 09:01:17;;;;;;;40.50;15.45;;;;;;;-0.51;74.44;96151.97;5010981;28;20045;-60
2021/01/05 09:03:42;;;;;;;45.20;14.82;;;;;;;-0.51;74.29;96146.59;5011535;28;20050;-63
2021/01/05 09:06:08;;;;;;;37.38;15.70;;;;;;;-0.60;74.42;96148.44;5013574;28;20529;-62
2021/01/05 09:08:35;;;;;;;37.00;15.77;;;;;;;-0.61;74.80;96150.34;5010684;28;20053;-63
2021/01/05 09:11:04;;;;;;;39.17;13.95;;;;;;;-0.53;74.87;96156.88;5008574;28;20149;-62
2021/01/05 09:13:30;;;;;;;40.47;16.90;;;;;;;-0.47;74.40;96152.97;5012814;28;20103;-65
2021/01/05 09:15:56;;;;;;;36.85;13.63;;;;;;;-0.35;73.78;96154.28;5019502;28;20421;-63
2021/01/05 09:18:22;;;;;;;39.00;15.60;;;;;;;-0.29;73.57;96151.16;5006460;28;20077;-63
2021/01/05 09:20:53;;;;;;;40.88;14.77;;;;;;;-0.33;73.26;96152.84;5003234;28;20037;-63
2021/01/05 09:23:22;;;;;;;41.42;15.02;;;;;;;-0.34;73.29;96155.84;5012565;28;20037;-63
2021/01/05 09:25:51;;;;;;;37.35;13.45;;;;;;;-0.30;73.27;96151.47;5018594;28;20479;-63
2021/01/05 09:28:19;;;;;;;33.90;13.10;;;;;;;-0.32;73.37;96153.66;5007928;28;20045;-65
2021/01/05 09:30:48;;;;;;;38.78;13.52;;;;;;;-0.28;73.32;96152.72;5017617;28;20064;-64
2021/01/05 09:33:15;;;;;;;38.38;14.52;;;;;;;-0.29;72.99;96151.16;5011942;28;20053;-65
2021/01/05 09:35:41;;;;;;;40.08;14.65;;;;;;;-0.31;72.81;96144.47;5010800;28;20489;-64
2021/01/05 09:38:08;;;;;;;40.80;14.07;;;;;;;-0.21;71.81;96153.06;5006945;28;20052;-65
2021/01/05 09:40:38;;;;;;;36.03;14.38;;;;;;;-0.17;71.80;96149.75;5019686;28;20046;-63
2021/01/05 09:43:05;;;;;;;35.40;12.70;;;;;;;-0.24;72.28;96148.28;5015030;28;20140;-66
2021/01/05 09:45:30;;;;;;;32.67;12.23;;;;;;;-0.28;72.07;96158.09;5009626;28;20050;-65
2021/01/05 09:48:11;;;;;;;33.60;12.10;;;;;;;-0.27;72.51;96161.59;5017142;28;20140;-64
2021/01/05 09:50:39;;;;;;;41.17;13.73;;;;;;;-0.24;72.32;96158.28;5018865;28;20071;-66
2021/01/05 09:53:04;;;;;;;37.22;13.40;;;;;;;-0.21;72.55;96157.66;4996430;28;20038;-66
2021/01/05 09:55:31;;;;;;;36.63;13.77;;;;;;;-0.17;71.79;96147.84;5000244;28;20764;-63
2021/01/05 09:57:58;;;;;;;40.50;13.70;;;;;;;-0.15;72.15;96148.34;5020406;28;20045;-63
2021/01/05 10:00:24;;;;;;;36.53;13.88;;;;;;;-0.06;71.76;96143.78;5013028;28;20615;-64
2021/01/05 10:02:50;;;;;;;37.88;14.20;;;;;;;-0.34;72.16;96140.50;5014496;28;20037;-63
2021/01/05 10:05:16;;;;;;;35.03;14.43;;;;;;;-0.24;72.39;96134.84;5004103;28;20100;-64
2021/01/05 10:07:42;;;;;;;42.17;13.05;;;;;;;-0.10;71.64;96142.03;5010634;28;20041;-63
2021/01/05 10:10:13;;;;;;;31.27;12.15;;;;;;;0.02;71.29;96136.03;5012979;28;20056;-63
2021/01/05 10:12:38;;;;;;;30.38;12.40;;;;;;;0.01;70.51;96137.16;5019024;28;20050;-63
2021/01/05 10:15:05;;;;;;;30.52;11.20;;;;;;;0.02;70.13;96131.47;5015933;28;20045;-65
2021/01/05 10:17:30;;;;;;;27.38;10.93;;;;;;;0.06;69.94;96131.63;5019751;28;20057;-64
2021/01/05 10:19:56;;;;;;;30.50;11.35;;;;;;;-0.17;69.93;96139.78;5019509;28;20537;-64
2021/01/05 10:22:21;;;;;;;29.35;11.85;;;;;;;-0.28;71.18;96138.47;5015035;28;20080;-65
2021/01/05 10:24:48;;;;;;;31.05;10.85;;;;;;;-0.22;70.76;96126.47;5013934;28;20712;-64
2021/01/05 10:27:13;;;;;;;28.02;10.77;;;;;;;-0.17;70.50;96128.22;4981869;28;20170;-62
2021/01/05 10:29:39;;;;;;;32.65;11.60;;;;;;;-0.10;70.06;96129.34;5006237;28;20591;-64
2021/01/05 10:32:04;;;;;;;28.52;10.60;;;;;;;-0.11;70.26;96125.09;5009726;28;20124;-66
2021/01/05 10:34:30;;;;;;;29.02;10.93;;;;;;;-0.08;70.51;96131.75;5006966;28;20121;-66
2021/01/05 10:37:00;;;;;;;26.42;10.02;;;;;;;-0.06;70.89;96124.16;5016641;28;20491;-64
2021/01/05 10:39:26;;;;;;;;;;;;;;;-0.02;70.34;96123.22;4991239;28;20048;-63
2021/01/05 10:41:52;;;;;;;25.45;10.73;;;;;;;-0.11;70.30;96122.41;4993143;28;19932;-61
2021/01/05 10:44:19;;;;;;;28.13;10.27;;;;;;;-0.08;71.75;96123.66;5007485;28;20535;-65
2021/01/05 10:46:45;;;;;;;29.50;11.57;;;;;;;-0.18;71.13;96130.13;5012137;28;20069;-65
2021/01/05 10:49:12;;;;;;;31.70;11.65;;;;;;;-0.21;71.60;96119.97;4991334;28;20466;-65
2021/01/05 10:51:48;;;;;;;30.30;11.95;;;;;;;-0.14;70.93;96131.09;4998564;28;20046;-63
2021/01/05 10:54:15;;;;;;;34.00;10.20;;;;;;;0.02;70.65;96120.69;4993385;28;20042;-65
2021/01/05 10:56:42;;;;;;;30.27;11.65;;;;;;;0.21;69.44;96125.00;5006443;28;20076;-64
2021/01/05 10:59:08;;;;;;;27.35;11.05;;;;;;;0.27;68.82;96123.75;4983559;28;20061;-65
2021/01/05 11:01:34;;;;;;;28.48;10.90;;;;;;;0.26;68.41;96114.88;5010669;28;20762;-62
2021/01/05 11:04:00;;;;;;;27.70;11.02;;;;;;;0.23;68.97;96120.09;5004768;28;20053;-64
2021/01/05 11:06:26;;;;;;;25.65;9.50;;;;;;;0.26;68.80;96112.19;5006649;28;20077;-64
2021/01/05 11:08:51;;;;;;;29.92;11.07;;;;;;;0.32;68.75;96116.31;5011607;28;20045;-66
2021/01/05 11:11:19;;;;;;;29.33;10.27;;;;;;;0.33;68.95;96115.22;5004011;28;20072;-64
2021/01/05 11:13:45;;;;;;;28.77;10.70;;;;;;;0.35;68.67;96115.69;5006516;28;20053;-66
2021/01/05 11:16:12;;;;;;;20.77;9.05;;;;;;;0.29;68.97;96113.44;5001990;28;20395;-63
2021/01/05 11:18:40;;;;;;;32.58;11.95;;;;;;;0.32;68.14;96115.53;4991172;28;20125;-64
2021/01/05 11:21:12;;;;;;;27.13;10.70;;;;;;;0.33;68.62;96114.44;5004134;28;20076;-64
2021/01/05 11:23:38;;;;;;;31.95;11.35;;;;;;;0.27;68.14;96108.41;5017453;28;20056;-66
2021/01/05 11:26:11;;;;;;;30.65;11.65;;;;;;;0.30;68.36;96118.53;5011091;28;20602;-67
2021/01/05 11:28:37;;;;;;;31.50;12.38;;;;;;;0.26;68.42;96116.78;5019910;28;20076;-65
2021/01/05 11:31:04;;;;;;;35.72;13.80;;;;;;;0.29;68.77;96111.56;5006152;28;20045;-66
2021/01/05 11:33:31;;;;;;;27.08;11.68;;;;;;;0.27;68.44;96112.97;4986465;28;20046;-64